createdAt,value
2019-04-14T00:08:04.645Z,39.88
2019-04-14T00:13:05.092Z,39.71
2019-04-14T00:18:07.445Z,40.46
2019-04-14T00:23:08.786Z,39.75
2019-04-14T00:28:09.514Z,39.95
2019-04-14T00:33:11.169Z,40.16
2019-04-14T00:38:28.088Z,40.27
2019-04-14T00:43:33.560Z,40.60
2019-04-14T00:48:34.854Z,40.15
2019-04-14T00:53:38.120Z,40.00
2019-04-14T00:58:38.957Z,40.35
2019-04-14T01:03:39.700Z,40.93
2019-04-14T01:08:41.048Z,41.44
2019-04-14T01:13:42.440Z,41.33
2019-04-14T01:18:45.024Z,41.11
2019-04-14T01:23:45.507Z,40.93
2019-04-14T01:28:46.891Z,40.87
2019-04-14T01:33:49.155Z,40.99
2019-04-14T01:39:06.849Z,41.28
2019-04-14T01:44:07.064Z,41.10
2019-04-14T01:49:09.342Z,41.58
2019-04-14T01:54:17.105Z,41.08
2019-04-14T01:59:17.904Z,41.20
2019-04-14T02:04:20.274Z,41.76
2019-04-14T02:09:20.935Z,41.85
2019-04-14T02:14:23.268Z,41.91
2019-04-14T02:19:24.166Z,42.23
2019-04-14T02:24:26.362Z,42.29
2019-04-14T02:29:27.630Z,42.31
2019-04-14T02:35:11.177Z,42.53
2019-04-14T02:40:04.060Z,42.88
2019-04-14T02:45:00.381Z,42.73
2019-04-14T02:49:56.556Z,42.62
2019-04-14T02:54:58.815Z,42.97
2019-04-14T03:10:04.849Z,42.35
2019-04-14T03:25:31.755Z,43.34
2019-04-14T03:30:58.417Z,43.34
2019-04-14T03:40:46.385Z,43.03
2019-04-14T03:45:55.181Z,43.03
2019-04-14T03:50:50.174Z,43.15
2019-04-14T04:01:15.096Z,43.43
2019-04-14T04:06:15.995Z,43.20
2019-04-14T04:11:17.217Z,43.17
2019-04-14T04:16:18.441Z,43.91
2019-04-14T04:21:22.796Z,43.93
2019-04-14T04:26:30.034Z,43.79
2019-04-14T04:31:31.311Z,44.15
2019-04-14T04:36:35.622Z,43.85
2019-04-14T04:41:36.634Z,43.87
2019-04-14T04:46:38.017Z,43.82
2019-04-14T04:51:40.007Z,44.15
2019-04-14T04:56:40.751Z,44.14
2019-04-14T05:01:42.982Z,44.12
2019-04-14T05:06:53.005Z,44.02
2019-04-14T05:12:04.258Z,44.32
2019-04-14T05:17:05.729Z,44.76
2019-04-14T05:22:06.971Z,44.19
2019-04-14T05:27:07.882Z,44.11
2019-04-14T05:32:08.845Z,44.28
2019-04-14T05:37:10.203Z,44.37
2019-04-14T05:42:18.004Z,44.18
2019-04-14T05:47:13.194Z,44.66
2019-04-14T05:52:18.646Z,45.86
2019-04-14T05:57:19.997Z,44.45
2019-04-14T06:02:22.297Z,44.24
2019-04-14T06:07:23.977Z,43.81
2019-04-14T06:12:26.340Z,44.22
2019-04-14T06:17:27.884Z,44.29
2019-04-14T06:22:29.213Z,44.44
2019-04-14T06:27:30.587Z,43.94
2019-04-14T06:32:33.854Z,44.74
2019-04-14T06:37:35.940Z,44.32
2019-04-14T06:42:38.260Z,45.77
2019-04-14T06:47:39.585Z,44.85
2019-04-14T06:52:41.716Z,43.91
2019-04-14T06:57:43.152Z,43.56
2019-04-14T07:02:47.911Z,43.62
2019-04-14T07:07:56.403Z,43.48
2019-04-14T07:12:48.336Z,43.46
2019-04-14T07:17:49.633Z,44.13
2019-04-14T07:22:50.977Z,44.46
2019-04-14T07:27:53.056Z,44.18
2019-04-14T07:32:59.030Z,43.44
2019-04-14T07:38:01.088Z,43.31
2019-04-14T07:43:08.142Z,43.76
2019-04-14T07:53:44.402Z,43.64
2019-04-14T08:04:18.338Z,44.07
2019-04-14T08:09:19.715Z,42.95
2019-04-14T08:14:21.800Z,43.11
2019-04-14T08:19:23.205Z,43.89
2019-04-14T08:24:24.627Z,43.38
2019-04-14T08:29:25.984Z,42.31
2019-04-14T08:34:27.342Z,42.28
2019-04-14T08:39:28.688Z,42.12
2019-04-14T08:44:45.028Z,42.46
2019-04-14T08:55:34.219Z,42.69
2019-04-14T09:00:40.534Z,41.59
2019-04-14T09:05:44.833Z,40.46
2019-04-14T09:10:46.304Z,40.01
2019-04-14T09:15:48.205Z,39.37
2019-04-14T09:20:52.433Z,37.72
2019-04-14T09:25:51.039Z,38.28
2019-04-14T09:30:52.685Z,37.51
2019-04-14T09:35:54.015Z,37.13
2019-04-14T09:40:55.445Z,37.33
2019-04-14T09:45:56.932Z,36.84
2019-04-14T09:51:04.943Z,36.63
2019-04-14T09:56:03.573Z,35.97
2019-04-14T10:01:05.651Z,36.29
2019-04-14T10:06:06.962Z,36.23
2019-04-14T10:11:08.406Z,36.01
2019-04-14T10:16:10.498Z,36.96
2019-04-14T10:21:17.620Z,36.17
2019-04-14T10:26:13.648Z,36.53
2019-04-14T10:31:15.055Z,36.50
2019-04-14T10:36:16.420Z,36.15
2019-04-14T10:41:17.769Z,36.17
2019-04-14T10:46:19.083Z,35.75
2019-04-14T10:51:29.891Z,36.14
2019-04-14T10:56:22.530Z,35.90
2019-04-14T11:01:24.134Z,36.03
2019-04-14T11:06:37.582Z,36.37
2019-04-14T11:11:38.884Z,35.73
2019-04-14T11:16:40.189Z,34.94
2019-04-14T11:21:42.696Z,35.39
2019-04-14T11:26:42.837Z,34.81
2019-04-14T11:31:46.131Z,34.23
2019-04-14T11:37:03.442Z,34.01
2019-04-14T11:42:05.525Z,34.36
2019-04-14T11:47:07.731Z,34.53
2019-04-14T11:52:09.083Z,34.61
2019-04-14T11:57:11.148Z,33.99
2019-04-14T12:02:14.036Z,34.15
2019-04-14T12:07:18.057Z,33.86
2019-04-14T12:12:24.378Z,34.09
2019-04-14T12:17:26.811Z,33.80
2019-04-14T12:22:28.997Z,34.09
2019-04-14T12:27:30.348Z,34.54
2019-04-14T12:32:31.660Z,34.41
2019-04-14T12:37:33.022Z,34.04
2019-04-14T12:42:45.192Z,33.95
2019-04-14T12:47:48.433Z,33.91
2019-04-14T12:52:49.946Z,33.89
2019-04-14T12:57:52.092Z,33.67
2019-04-14T13:02:53.478Z,33.74
2019-04-14T13:07:57.575Z,33.64
2019-04-14T13:13:00.018Z,33.37
2019-04-14T13:18:01.329Z,33.46
2019-04-14T13:23:02.680Z,33.71
2019-04-14T13:28:04.053Z,33.99
2019-04-14T13:33:06.042Z,33.72
2019-04-14T13:38:07.392Z,33.42
2019-04-14T13:43:08.727Z,33.20
2019-04-14T13:48:10.072Z,33.11
2019-04-14T13:53:12.203Z,33.23
2019-04-14T13:58:13.606Z,33.33
2019-04-14T14:03:15.097Z,33.27
2019-04-14T14:08:16.483Z,33.20
2019-04-14T14:13:20.718Z,33.47
2019-04-14T14:18:32.973Z,33.23
2019-04-14T14:29:02.443Z,33.41
2019-04-14T14:34:05.497Z,33.26
2019-04-14T14:39:06.919Z,32.71
2019-04-14T14:44:09.057Z,32.33
2019-04-14T14:49:17.225Z,32.59
2019-04-14T14:54:18.552Z,32.48
2019-04-14T14:59:19.893Z,32.90
2019-04-14T15:04:21.269Z,32.85
2019-04-14T15:09:22.612Z,33.10
2019-04-14T15:14:28.001Z,32.96
2019-04-14T15:19:29.439Z,32.77
2019-04-14T15:24:31.955Z,32.76
2019-04-14T15:29:33.299Z,32.77
2019-04-14T15:34:35.697Z,32.61
2019-04-14T15:39:37.710Z,32.51
2019-04-14T15:44:39.600Z,32.64
2019-04-14T15:49:42.020Z,32.64
2019-04-14T15:54:51.934Z,32.84
2019-04-14T15:59:53.548Z,33.01
2019-04-14T16:04:57.843Z,33.69
2019-04-14T16:10:12.536Z,33.49
2019-04-14T16:15:17.918Z,33.92
2019-04-14T16:20:20.035Z,33.84
2019-04-14T16:25:21.482Z,33.95
2019-04-14T16:30:30.162Z,33.95
2019-04-14T16:35:33.449Z,33.94
2019-04-14T16:40:34.825Z,34.67
2019-04-14T16:45:36.277Z,34.53
2019-04-14T16:50:37.694Z,35.09
2019-04-14T16:55:44.781Z,35.10
2019-04-14T17:00:51.124Z,35.41
2019-04-14T17:05:53.269Z,35.19
2019-04-14T17:10:55.397Z,34.96
2019-04-14T17:16:06.619Z,35.21
2019-04-14T17:21:14.189Z,35.06
2019-04-14T17:26:15.568Z,35.38
2019-04-14T17:31:18.099Z,34.96
2019-04-14T17:36:21.519Z,34.98
2019-04-14T17:41:30.200Z,35.98
2019-04-14T17:46:32.541Z,36.07
2019-04-14T17:51:36.743Z,36.02
2019-04-14T17:56:40.281Z,36.09
2019-04-14T18:01:52.149Z,36.21
2019-04-14T18:06:53.584Z,36.28
2019-04-14T18:12:06.464Z,36.81
2019-04-14T18:17:14.784Z,36.38
2019-04-14T18:22:16.455Z,36.54
2019-04-14T18:27:19.717Z,36.48
2019-04-14T18:32:22.786Z,36.44
2019-04-14T18:37:32.524Z,36.62
2019-04-14T18:42:39.773Z,36.62
2019-04-14T18:47:45.421Z,36.79
2019-04-14T18:58:19.332Z,37.41
2019-04-14T19:03:22.508Z,37.15
2019-04-14T19:08:28.608Z,37.13
2019-04-14T19:13:31.451Z,37.38
2019-04-14T19:18:33.065Z,37.37
2019-04-14T19:23:34.431Z,37.54
2019-04-14T19:28:36.545Z,37.58
2019-04-14T19:33:37.904Z,37.72
2019-04-14T19:38:39.273Z,37.69
2019-04-14T19:43:40.681Z,38.16
2019-04-14T19:48:42.045Z,38.74
2019-04-14T19:53:43.427Z,39.07
2019-04-14T19:58:45.063Z,38.99
2019-04-14T20:03:46.497Z,39.86
2019-04-14T20:08:48.542Z,39.83
2019-04-14T20:13:49.899Z,40.60
2019-04-14T20:19:09.647Z,40.21
2019-04-14T20:24:04.759Z,40.31
2019-04-14T20:29:06.128Z,40.90
2019-04-14T20:34:07.492Z,40.69
2019-04-14T20:39:08.846Z,40.89
2019-04-14T20:44:18.696Z,41.09
2019-04-14T20:49:20.786Z,41.48
2019-04-14T20:54:32.954Z,41.83
2019-04-14T20:59:34.301Z,41.84
2019-04-14T21:04:35.600Z,42.30
2019-04-14T21:09:41.747Z,43.02
2019-04-14T21:14:43.108Z,43.65
2019-04-14T21:19:50.624Z,43.69
2019-04-14T21:24:51.946Z,43.46
2019-04-14T21:30:07.956Z,44.49
2019-04-14T21:35:10.084Z,44.75
2019-04-14T21:45:41.414Z,45.71
2019-04-14T21:50:43.075Z,45.75
2019-04-14T21:55:44.408Z,45.10
2019-04-14T22:06:33.097Z,47.03
2019-04-14T22:11:41.052Z,47.80
2019-04-14T22:16:42.459Z,47.67
2019-04-14T22:21:47.362Z,48.43
2019-04-14T22:26:46.677Z,49.17
2019-04-14T22:31:56.317Z,49.22
2019-04-14T22:36:57.601Z,50.07
2019-04-14T22:41:58.912Z,49.16
2019-04-14T22:47:01.015Z,49.74
2019-04-14T22:52:02.397Z,49.78
2019-04-14T22:57:03.743Z,50.42
2019-04-14T23:02:24.521Z,50.36
2019-04-14T23:07:33.753Z,51.78
2019-04-14T23:12:38.084Z,52.07
2019-04-14T23:17:40.261Z,51.17
2019-04-14T23:22:42.680Z,50.99
2019-04-14T23:27:44.083Z,51.03
2019-04-14T23:32:45.498Z,51.01
2019-04-14T23:37:46.864Z,51.60
2019-04-14T23:42:48.177Z,51.46
2019-04-14T23:47:49.593Z,52.45
2019-04-14T23:52:51.036Z,52.60
2019-04-14T23:57:53.229Z,53.02
